Abington, Connecticut
Current Conditions -  °F | °C
As of 9:25 PM on Monday 22 Dec 2014 (Local Time) from KIJD Reporting Station
Overcast Overcast  
Wind Chill:   Ceiling: 1800
Heat Index:   Visibility: 10mi
Dew Point:   Wind: 3mph
Humidity: 86%   Direction: 360°N
Pressure: 30.29"   Gusts: NA
Location:  41.86°N, 72.01°W
Report Text: KIJD 230225Z AUTO 36003KT 10SM FEW012 BKN018 OVC040 05/03 A3029 RMK AO2 T00500028
Loading
Personal Weather Stations






























Interactive Weather Map New forecast layout! Learn more

10-Day Weather Forecast

Advertisements
Track Severe Weather on mobile